Time;durP1;ratioP1;P1;durP2;ratioP2;P2;SDS_P1;SDS_P2;PMS_P1;PMS_P2;Temp;Humidity;BMP_temperature;BMP_pressure;BME280_temperature;BME280_humidity;BME280_pressure;Samples;Min_cycle;Max_cycle;Signal;HPM_P1;HPM_P2
2022/11/25 06:00:25;;;;;;;9.97;6.27;;;5.50;97.20;;;;;;1680504;29;20201;-74
2022/11/25 06:01:16;;;;;;;7.22;5.43;;;5.50;97.20;;;;;;1680539;29;20588;-74
2022/11/25 06:02:08;;;;;;;5.82;5.00;;;5.50;97.20;;;;;;1680747;29;20217;-74
2022/11/25 06:02:59;;;;;;;4.80;4.28;;;5.50;97.20;;;;;;1682227;29;20206;-76
2022/11/25 06:03:51;;;;;;;5.55;3.92;;;5.50;97.20;;;;;;1687002;29;20287;-75
2022/11/25 06:04:41;;;;;;;5.85;3.85;;;5.50;97.20;;;;;;1688024;29;20223;-74
2022/11/25 06:05:34;;;;;;;6.70;5.00;;;5.50;97.20;;;;;;1687335;29;20240;-73
2022/11/25 06:06:25;;;;;;;5.53;4.38;;;5.50;97.20;;;;;;1688443;29;20232;-73
2022/11/25 06:07:17;;;;;;;6.30;4.20;;;5.50;97.20;;;;;;1688178;29;20208;-73
2022/11/25 06:08:08;;;;;;;6.55;4.22;;;5.40;97.20;;;;;;1688742;29;20493;-73
2022/11/25 06:09:00;;;;;;;4.45;4.05;;;5.40;97.20;;;;;;1688119;29;20204;-72
2022/11/25 06:09:51;;;;;;;5.90;4.50;;;5.40;97.20;;;;;;1688550;29;20212;-73
2022/11/25 06:10:43;;;;;;;7.00;4.10;;;5.40;97.20;;;;;;1688295;29;20285;-74
2022/11/25 06:11:34;;;;;;;6.90;4.40;;;5.40;97.20;;;;;;1688418;29;20349;-74
2022/11/25 06:12:26;;;;;;;4.70;4.07;;;5.40;97.20;;;;;;1688087;29;20260;-73
2022/11/25 06:13:16;;;;;;;6.78;4.13;;;5.40;97.20;;;;;;1683181;29;20457;-73
2022/11/25 06:14:08;;;;;;;6.27;4.53;;;5.40;97.20;;;;;;1682169;29;20272;-73
2022/11/25 06:14:59;;;;;;;8.18;5.28;;;5.40;97.20;;;;;;1681967;29;20836;-73
2022/11/25 06:15:52;;;;;;;5.63;4.43;;;5.40;97.20;;;;;;1682005;29;20205;-73
2022/11/25 06:16:43;;;;;;;5.97;4.70;;;5.40;97.20;;;;;;1681730;29;20209;-74
2022/11/25 06:17:35;;;;;;;5.37;4.87;;;5.40;97.20;;;;;;1681887;29;20220;-74
2022/11/25 06:18:25;;;;;;;5.47;4.60;;;5.40;97.20;;;;;;1681441;29;20590;-74
2022/11/25 06:19:17;;;;;;;5.13;4.53;;;5.40;97.20;;;;;;1681961;29;20248;-74
2022/11/25 06:20:08;;;;;;;4.50;4.03;;;5.40;97.20;;;;;;1681829;29;20217;-73
2022/11/25 06:21:00;;;;;;;8.40;4.95;;;5.40;97.20;;;;;;1681849;29;20229;-73
2022/11/25 06:21:51;;;;;;;6.50;4.50;;;5.40;97.20;;;;;;1686096;29;20224;-74
2022/11/25 06:22:43;;;;;;;6.73;4.83;;;5.50;97.20;;;;;;1687129;29;20755;-74
2022/11/25 06:23:34;;;;;;;6.40;4.68;;;5.50;97.20;;;;;;1681653;29;20206;-74
2022/11/25 06:24:26;;;;;;;5.53;4.50;;;5.50;97.20;;;;;;1681953;29;20208;-74
2022/11/25 06:25:17;;;;;;;7.13;4.53;;;5.50;97.20;;;;;;1682877;29;20213;-74
2022/11/25 06:26:13;;;;;;;6.63;4.50;;;5.50;97.20;;;;;;1681954;29;20213;-74
2022/11/25 06:27:03;;;;;;;7.07;4.90;;;5.50;97.20;;;;;;1681746;29;20450;-73
2022/11/25 06:27:55;;;;;;;6.23;4.37;;;5.50;97.20;;;;;;1681834;29;20220;-74
2022/11/25 06:28:46;;;;;;;4.93;4.43;;;5.50;97.20;;;;;;1681739;29;20627;-74
2022/11/25 06:29:38;;;;;;;5.35;4.75;;;5.50;97.20;;;;;;1681745;29;20216;-74
2022/11/25 06:30:29;;;;;;;4.82;4.05;;;5.50;97.20;;;;;;1681570;29;20357;-74
2022/11/25 06:31:24;;;;;;;6.50;4.43;;;5.60;97.20;;;;;;1682074;29;20253;-74
2022/11/25 06:32:15;;;;;;;5.70;4.60;;;5.60;97.20;;;;;;1682042;29;20197;-73
2022/11/25 06:33:07;;;;;;;5.80;4.63;;;5.50;97.20;;;;;;1684854;29;20200;-74
2022/11/25 06:33:57;;;;;;;7.22;3.90;;;5.50;97.20;;;;;;1688248;29;20227;-74
2022/11/25 06:34:49;;;;;;;5.50;4.20;;;5.50;97.20;;;;;;1688466;29;20208;-74
2022/11/25 06:35:40;;;;;;;4.40;3.65;;;5.60;97.20;;;;;;1688527;29;20944;-74
2022/11/25 06:36:31;;;;;;;5.17;4.60;;;5.50;97.20;;;;;;1688347;29;20697;-74
2022/11/25 06:37:22;;;;;;;4.38;3.80;;;5.50;97.20;;;;;;1688478;29;20694;-74
2022/11/25 06:38:14;;;;;;;5.60;4.00;;;5.50;97.20;;;;;;1688436;29;20908;-74
2022/11/25 06:39:05;;;;;;;5.70;3.97;;;5.50;97.20;;;;;;1687976;29;20205;-74
2022/11/25 06:39:56;;;;;;;5.30;4.47;;;5.60;97.20;;;;;;1688286;29;20240;-74
2022/11/25 06:40:47;;;;;;;5.55;3.88;;;5.50;97.20;;;;;;1688460;29;20228;-76
2022/11/25 06:41:39;;;;;;;5.33;4.20;;;5.50;97.20;;;;;;1688240;29;20208;-75
2022/11/25 06:42:29;;;;;;;5.55;4.18;;;5.50;97.20;;;;;;1686162;29;20667;-75
2022/11/25 06:43:21;;;;;;;4.13;3.53;;;5.50;97.20;;;;;;1686710;29;20723;-75
2022/11/25 06:44:12;;;;;;;5.78;4.70;;;5.60;97.20;;;;;;1687792;29;20213;-75
2022/11/25 06:45:04;;;;;;;5.37;4.70;;;5.50;97.20;;;;;;1688115;29;20206;-75
2022/11/25 06:46:01;;;;;;;5.00;4.22;;;5.50;97.20;;;;;;1688190;29;20453;-74
2022/11/25 06:46:54;;;;;;;6.60;4.40;;;5.50;97.20;;;;;;1688219;29;20251;-74
2022/11/25 06:47:45;;;;;;;7.72;4.65;;;5.50;97.20;;;;;;1688487;29;20215;-75
2022/11/25 06:48:37;;;;;;;6.70;4.60;;;5.50;97.20;;;;;;1687918;29;20215;-74
2022/11/25 06:49:28;;;;;;;6.28;4.03;;;5.50;97.20;;;;;;1686651;29;20216;-75
2022/11/25 06:50:20;;;;;;;5.30;4.10;;;5.50;97.20;;;;;;1686332;29;20189;-74
2022/11/25 06:51:12;;;;;;;8.45;4.90;;;5.50;97.20;;;;;;1686704;29;20587;-76
2022/11/25 06:52:04;;;;;;;4.22;3.80;;;5.50;97.20;;;;;;1686355;29;20254;-75
2022/11/25 06:52:55;;;;;;;7.60;4.30;;;5.50;97.20;;;;;;1684075;29;20209;-75
2022/11/25 06:53:47;;;;;;;5.83;4.30;;;5.50;97.20;;;;;;1686527;29;20208;-74
2022/11/25 06:54:40;;;;;;;6.45;4.70;;;5.50;97.20;;;;;;1686207;29;20209;-75
2022/11/25 06:55:31;;;;;;;5.55;4.82;;;5.50;97.20;;;;;;1686331;29;20663;-75
2022/11/25 06:56:24;;;;;;;6.15;4.35;;;5.50;97.20;;;;;;1686834;29;20223;-75
2022/11/25 06:57:18;;;;;;;4.70;4.25;;;5.50;97.20;;;;;;1686456;29;20284;-75
2022/11/25 06:58:08;;;;;;;6.65;4.80;;;5.60;97.20;;;;;;1686236;29;20200;-75
2022/11/25 06:59:01;;;;;;;6.03;5.00;;;5.60;97.20;;;;;;1686316;29;20207;-75
2022/11/25 06:59:52;;;;;;;6.45;4.22;;;5.60;97.20;;;;;;1686230;29;20201;-74
2022/11/25 07:00:44;;;;;;;6.30;4.30;;;5.60;97.20;;;;;;1686289;29;20235;-74
2022/11/25 07:01:35;;;;;;;5.97;4.63;;;5.60;97.20;;;;;;1686283;29;20457;-75
2022/11/25 07:02:28;;;;;;;8.07;4.70;;;5.60;97.20;;;;;;1685825;29;20200;-75
2022/11/25 07:03:19;;;;;;;5.10;4.35;;;5.70;97.20;;;;;;1685423;29;20452;-75
2022/11/25 07:04:10;;;;;;;5.43;4.57;;;5.60;97.20;;;;;;1686183;29;20256;-75
2022/11/25 07:05:01;;;;;;;6.32;4.97;;;5.70;97.20;;;;;;1686604;29;20456;-75
2022/11/25 07:05:55;;;;;;;11.70;7.23;;;5.70;97.20;;;;;;1686408;29;20296;-75
2022/11/25 07:06:48;;;;;;;14.48;8.85;;;5.70;97.20;;;;;;1686992;29;20212;-74
2022/11/25 07:07:39;;;;;;;8.98;8.07;;;5.70;97.20;;;;;;1686311;29;20193;-76
2022/11/25 07:08:30;;;;;;;7.63;6.68;;;5.70;97.20;;;;;;1685673;29;20212;-75
2022/11/25 07:09:23;;;;;;;10.07;7.50;;;5.70;97.20;;;;;;1686574;29;20193;-76
2022/11/25 07:10:14;;;;;;;11.40;7.15;;;5.80;97.20;;;;;;1686284;29;20957;-76
2022/11/25 07:11:08;;;;;;;7.90;6.40;;;5.80;97.20;;;;;;1686387;29;20212;-75
2022/11/25 07:11:59;;;;;;;8.23;6.35;;;5.80;97.20;;;;;;1685796;29;20449;-75
2022/11/25 07:12:51;;;;;;;7.73;6.27;;;5.80;97.20;;;;;;1684816;29;20209;-75
2022/11/25 07:13:42;;;;;;;7.95;5.93;;;5.80;97.20;;;;;;1686522;29;20565;-75
2022/11/25 07:14:34;;;;;;;6.25;5.70;;;5.80;97.20;;;;;;1686755;29;20208;-74
2022/11/25 07:15:25;;;;;;;8.38;5.72;;;5.90;97.20;;;;;;1686206;29;20209;-75
2022/11/25 07:16:17;;;;;;;6.57;5.53;;;5.90;97.20;;;;;;1685449;29;20204;-75
2022/11/25 07:17:07;;;;;;;5.93;5.30;;;5.90;97.20;;;;;;1685872;29;20209;-75
2022/11/25 07:18:00;;;;;;;6.67;5.23;;;5.90;97.20;;;;;;1686482;29;20211;-75
2022/11/25 07:18:51;;;;;;;6.80;5.63;;;6.00;97.20;;;;;;1685916;29;20697;-75
2022/11/25 07:19:44;;;;;;;5.83;5.23;;;6.00;97.20;;;;;;1686549;29;20585;-75
2022/11/25 07:20:35;;;;;;;6.20;5.60;;;6.00;97.20;;;;;;1686102;29;20536;-75
2022/11/25 07:21:26;;;;;;;5.73;5.20;;;6.00;97.20;;;;;;1686491;29;20208;-75
2022/11/25 07:22:17;;;;;;;5.38;4.75;;;6.10;97.20;;;;;;1686022;29;20233;-75
2022/11/25 07:23:09;;;;;;;6.43;4.83;;;6.10;97.20;;;;;;1684203;29;20205;-75
2022/11/25 07:24:01;;;;;;;5.13;4.40;;;6.10;97.20;;;;;;1686293;29;20197;-75
2022/11/25 07:24:53;;;;;;;7.38;5.25;;;6.10;97.20;;;;;;1686075;29;20319;-75
2022/11/25 07:25:44;;;;;;;6.65;4.85;;;6.20;97.20;;;;;;1686272;29;20822;-76
2022/11/25 07:26:37;;;;;;;6.50;4.80;;;6.20;97.20;;;;;;1685691;29;20579;-75
2022/11/25 07:27:28;;;;;;;6.50;5.38;;;6.20;97.20;;;;;;1685574;29;20287;-76
2022/11/25 07:28:20;;;;;;;5.57;5.00;;;6.20;97.20;;;;;;1686140;29;20197;-75
2022/11/25 07:29:13;;;;;;;11.55;8.93;;;6.30;97.20;;;;;;1685986;29;20215;-75
2022/11/25 07:30:06;;;;;;;12.10;9.02;;;6.30;97.20;;;;;;1685934;29;20280;-75
2022/11/25 07:31:04;;;;;;;14.50;10.88;;;6.30;97.20;;;;;;1685450;29;20264;-74
2022/11/25 07:31:55;;;;;;;14.73;12.18;;;6.30;97.20;;;;;;1686399;29;20268;-74
2022/11/25 07:32:46;;;;;;;13.48;10.75;;;6.30;97.20;;;;;;1684173;29;20232;-74
2022/11/25 07:33:39;;;;;;;12.63;10.67;;;6.40;97.20;;;;;;1686575;29;20196;-74
2022/11/25 07:34:31;;;;;;;10.98;9.07;;;6.40;97.20;;;;;;1686114;29;20240;-74
2022/11/25 07:35:22;;;;;;;10.00;8.30;;;6.40;97.20;;;;;;1686579;29;20212;-75
2022/11/25 07:36:14;;;;;;;13.10;9.03;;;6.40;97.20;;;;;;1686244;29;20291;-74
2022/11/25 07:37:06;;;;;;;9.40;8.50;;;6.40;97.20;;;;;;1686517;29;20201;-75
2022/11/25 07:37:57;;;;;;;10.10;9.20;;;6.40;97.20;;;;;;1686453;29;20264;-74
2022/11/25 07:38:49;;;;;;;13.20;10.23;;;6.40;97.20;;;;;;1685558;29;20204;-75
2022/11/25 07:39:40;;;;;;;15.10;11.68;;;6.40;97.20;;;;;;1686312;29;20223;-75
2022/11/25 07:40:31;;;;;;;14.20;11.97;;;6.50;97.20;;;;;;1685642;29;20740;-74
2022/11/25 07:41:24;;;;;;;13.68;11.38;;;6.50;97.20;;;;;;1685706;29;20392;-74
2022/11/25 07:42:16;;;;;;;14.02;11.20;;;6.50;97.20;;;;;;1686035;29;20228;-74
2022/11/25 07:43:06;;;;;;;15.55;12.68;;;6.50;97.20;;;;;;1684783;29;20224;-74
2022/11/25 07:44:00;;;;;;;15.17;11.47;;;6.60;97.20;;;;;;1686252;29;20200;-74
2022/11/25 07:44:51;;;;;;;14.00;9.90;;;6.60;97.20;;;;;;1686129;29;20209;-74
2022/11/25 07:45:43;;;;;;;11.80;9.73;;;6.60;97.20;;;;;;1686736;29;20207;-74
2022/11/25 07:46:36;;;;;;;10.48;8.10;;;6.60;97.20;;;;;;1686029;29;20888;-74
2022/11/25 07:47:27;;;;;;;10.80;8.10;;;6.70;97.20;;;;;;1686573;29;20228;-74
2022/11/25 07:48:19;;;;;;;8.63;7.07;;;6.70;97.20;;;;;;1686498;29;20205;-74
2022/11/25 07:49:14;;;;;;;7.07;6.38;;;6.70;97.20;;;;;;1685867;29;20209;-75
2022/11/25 07:50:07;;;;;;;7.80;7.00;;;6.70;97.20;;;;;;1685870;29;20201;-74
2022/11/25 07:50:57;;;;;;;7.57;6.60;;;6.70;97.20;;;;;;1686080;29;20224;-75
2022/11/25 07:51:52;;;;;;;9.87;7.33;;;6.80;97.20;;;;;;1686240;29;20210;-75
2022/11/25 07:52:44;;;;;;;8.38;7.50;;;6.80;97.20;;;;;;1684302;29;20204;-75
2022/11/25 07:53:34;;;;;;;7.43;6.72;;;6.80;97.20;;;;;;1685988;29;20197;-75
2022/11/25 07:54:26;;;;;;;9.93;7.80;;;6.80;97.20;;;;;;1686273;29;20200;-74
2022/11/25 07:55:17;;;;;;;8.60;6.85;;;6.80;97.20;;;;;;1685680;29;20208;-74
2022/11/25 07:56:09;;;;;;;9.40;7.27;;;6.80;97.20;;;;;;1684834;29;20203;-75
2022/11/25 07:57:00;;;;;;;8.45;7.40;;;6.80;97.20;;;;;;1683912;29;20628;-75
2022/11/25 07:57:52;;;;;;;7.13;6.45;;;6.80;97.20;;;;;;1685877;29;20208;-74
2022/11/25 07:58:43;;;;;;;7.40;6.60;;;6.90;97.20;;;;;;1685032;29;20219;-75
2022/11/25 07:59:40;;;;;;;8.55;6.68;;;6.90;97.20;;;;;;1685883;29;20196;-75
2022/11/25 08:00:30;;;;;;;7.05;6.35;;;6.90;97.20;;;;;;1686132;29;20234;-75
2022/11/25 08:01:23;;;;;;;7.80;6.37;;;6.90;97.20;;;;;;1686096;29;20235;-74
2022/11/25 08:02:13;;;;;;;10.27;5.75;;;6.90;97.20;;;;;;1685749;29;20228;-75
2022/11/25 08:03:05;;;;;;;7.20;5.77;;;7.00;97.20;;;;;;1685598;29;20197;-74
2022/11/25 08:03:58;;;;;;;7.15;4.78;;;7.00;97.20;;;;;;1685942;29;20200;-74
2022/11/25 08:04:50;;;;;;;7.05;5.13;;;7.00;97.20;;;;;;1686060;29;20227;-74
2022/11/25 08:05:41;;;;;;;5.22;4.72;;;6.90;97.20;;;;;;1686251;29;20340;-74
2022/11/25 08:06:37;;;;;;;5.07;4.57;;;6.90;97.20;;;;;;1686184;29;20207;-74
2022/11/25 08:07:29;;;;;;;5.68;4.80;;;6.90;97.20;;;;;;1686292;29;20296;-74
2022/11/25 08:08:20;;;;;;;7.65;5.25;;;6.90;97.20;;;;;;1685859;29;20682;-74
2022/11/25 08:09:14;;;;;;;5.47;4.97;;;6.90;97.20;;;;;;1685469;29;20570;-74
2022/11/25 08:10:05;;;;;;;6.25;4.90;;;7.00;97.20;;;;;;1682823;29;20220;-74
2022/11/25 08:10:57;;;;;;;5.70;5.20;;;7.00;97.20;;;;;;1686469;29;20259;-74
2022/11/25 08:11:49;;;;;;;5.50;4.80;;;6.90;97.20;;;;;;1685734;29;20582;-74
2022/11/25 08:12:40;;;;;;;5.95;4.68;;;6.90;97.20;;;;;;1686149;29;20201;-74
2022/11/25 08:13:32;;;;;;;5.87;4.67;;;7.00;97.20;;;;;;1686109;29;20675;-74
2022/11/25 08:14:24;;;;;;;5.95;4.82;;;7.00;97.20;;;;;;1686088;29;20676;-74
2022/11/25 08:15:16;;;;;;;7.97;5.63;;;6.90;97.20;;;;;;1686264;29;20220;-74
2022/11/25 08:16:07;;;;;;;9.02;6.40;;;7.00;97.20;;;;;;1686245;29;20201;-74
2022/11/25 08:16:59;;;;;;;6.57;5.88;;;7.00;97.20;;;;;;1685964;29;20201;-74
2022/11/25 08:17:51;;;;;;;8.20;6.35;;;7.00;97.20;;;;;;1686137;29;21768;-74
2022/11/25 08:18:43;;;;;;;6.72;6.05;;;7.00;97.20;;;;;;1685435;29;20331;-74
2022/11/25 08:19:35;;;;;;;13.13;6.03;;;7.00;97.20;;;;;;1686015;29;20690;-74
2022/11/25 08:20:30;;;;;;;7.68;5.75;;;7.00;97.20;;;;;;1686135;29;20204;-74
2022/11/25 08:21:21;;;;;;;5.15;4.63;;;7.00;97.20;;;;;;1686228;29;20204;-74
2022/11/25 08:22:12;;;;;;;5.87;4.43;;;7.10;97.20;;;;;;1686192;29;20208;-74
2022/11/25 08:23:03;;;;;;;5.68;5.07;;;7.10;97.20;;;;;;1686398;29;20895;-74
2022/11/25 08:23:56;;;;;;;7.97;5.40;;;7.10;97.20;;;;;;1686223;29;20208;-74
2022/11/25 08:24:46;;;;;;;5.72;4.53;;;7.10;97.20;;;;;;1686375;29;20215;-74
2022/11/25 08:25:40;;;;;;;6.10;4.77;;;7.10;97.20;;;;;;1686228;29;20216;-74
2022/11/25 08:26:34;;;;;;;7.22;5.13;;;7.10;97.20;;;;;;1686155;29;20211;-74
2022/11/25 08:27:25;;;;;;;6.30;5.45;;;7.10;97.20;;;;;;1685935;29;20200;-74
2022/11/25 08:28:16;;;;;;;7.93;5.47;;;7.10;97.20;;;;;;1685878;29;20200;-73
2022/11/25 08:29:11;;;;;;;7.18;6.20;;;7.10;97.20;;;;;;1685675;29;20201;-74
2022/11/25 08:30:03;;;;;;;11.95;7.43;;;7.10;97.20;;;;;;1685816;29;20201;-74
2022/11/25 08:31:01;;;;;;;7.15;6.10;;;7.10;97.20;;;;;;1686161;29;20243;-74
2022/11/25 08:31:53;;;;;;;8.10;5.80;;;7.10;97.20;;;;;;1685790;29;20259;-74
2022/11/25 08:32:43;;;;;;;8.02;5.28;;;7.10;97.20;;;;;;1685640;29;20319;-74
2022/11/25 08:33:36;;;;;;;8.93;6.60;;;7.10;97.20;;;;;;1686045;29;20204;-74
2022/11/25 08:34:27;;;;;;;10.40;6.15;;;7.10;97.20;;;;;;1686164;29;20552;-74
2022/11/25 08:35:18;;;;;;;8.23;4.80;;;7.20;97.20;;;;;;1686105;29;20847;-74
2022/11/25 08:36:12;;;;;;;6.85;4.55;;;7.20;97.20;;;;;;1686171;29;20204;-74
2022/11/25 08:37:04;;;;;;;6.80;4.80;;;7.20;97.20;;;;;;1685886;29;20205;-74
2022/11/25 08:37:55;;;;;;;6.93;5.03;;;7.20;97.20;;;;;;1685878;29;20204;-74
2022/11/25 08:38:48;;;;;;;8.83;4.70;;;7.30;97.20;;;;;;1686128;29;20203;-74
2022/11/25 08:39:39;;;;;;;5.43;3.80;;;7.30;97.20;;;;;;1685909;29;20682;-74
2022/11/25 08:40:31;;;;;;;8.40;4.07;;;7.30;97.20;;;;;;1685736;29;21722;-74
2022/11/25 08:41:25;;;;;;;7.28;4.13;;;7.30;97.20;;;;;;1685785;29;20235;-74
2022/11/25 08:42:16;;;;;;;4.60;3.67;;;7.40;97.20;;;;;;1685656;29;20207;-74
2022/11/25 08:43:07;;;;;;;9.27;4.30;;;7.40;97.20;;;;;;1686161;29;20288;-74
2022/11/25 08:44:00;;;;;;;6.15;4.00;;;7.40;97.20;;;;;;1685970;29;20197;-74
2022/11/25 08:44:54;;;;;;;6.85;4.55;;;7.50;97.20;;;;;;1686012;29;20200;-74
2022/11/25 08:45:45;;;;;;;5.75;4.78;;;7.50;97.20;;;;;;1686200;29;20295;-74
2022/11/25 08:46:38;;;;;;;6.10;5.27;;;7.50;97.20;;;;;;1686660;29;21070;-74
2022/11/25 08:47:29;;;;;;;6.35;4.90;;;7.50;97.20;;;;;;1685929;29;20560;-74
2022/11/25 08:48:21;;;;;;;8.13;6.00;;;7.60;97.20;;;;;;1686544;29;20208;-74
2022/11/25 08:49:16;;;;;;;5.97;5.38;;;7.60;97.20;;;;;;1685701;29;20231;-74
2022/11/25 08:50:08;;;;;;;8.35;7.28;;;7.60;97.20;;;;;;1685855;29;20648;-74
2022/11/25 08:51:00;;;;;;;7.15;6.32;;;7.70;97.20;;;;;;1685995;29;20293;-74
2022/11/25 08:51:52;;;;;;;7.90;7.10;;;7.70;97.20;;;;;;1685954;29;20208;-74
2022/11/25 08:52:44;;;;;;;14.68;12.10;;;7.70;97.20;;;;;;1686553;29;20558;-74
2022/11/25 08:53:36;;;;;;;7.57;6.88;;;7.70;97.20;;;;;;1686283;29;20204;-74
2022/11/25 08:54:27;;;;;;;8.20;7.35;;;7.70;97.20;;;;;;1686440;29;20205;-74
2022/11/25 08:55:18;;;;;;;7.90;7.13;;;7.70;97.20;;;;;;1685342;29;20219;-74
2022/11/25 08:56:10;;;;;;;10.17;8.90;;;7.80;97.20;;;;;;1686160;29;20211;-74
2022/11/25 08:57:01;;;;;;;6.05;5.03;;;7.80;97.20;;;;;;1685424;29;20449;-74
2022/11/25 08:57:54;;;;;;;7.10;4.93;;;7.90;97.20;;;;;;1685987;29;20203;-74
2022/11/25 08:58:45;;;;;;;9.07;6.50;;;7.90;97.20;;;;;;1685391;29;20457;-74
2022/11/25 08:59:37;;;;;;;7.32;6.45;;;7.90;97.20;;;;;;1686085;29;20223;-74
2022/11/25 09:00:28;;;;;;;7.07;5.80;;;8.00;97.20;;;;;;1685434;29;20205;-74
2022/11/25 09:01:20;;;;;;;6.90;5.67;;;8.00;97.20;;;;;;1686523;29;20197;-74
2022/11/25 09:02:15;;;;;;;6.40;4.55;;;8.10;97.20;;;;;;1685774;29;20209;-74
2022/11/25 09:03:07;;;;;;;6.60;5.90;;;8.20;97.20;;;;;;1686008;29;20201;-74
2022/11/25 09:03:59;;;;;;;6.68;5.60;;;8.20;97.20;;;;;;1685825;29;20204;-74
2022/11/25 09:04:50;;;;;;;7.78;5.75;;;8.30;97.20;;;;;;1685789;29;20223;-74
2022/11/25 09:05:44;;;;;;;9.40;5.80;;;8.40;97.20;;;;;;1686112;29;20203;-74
2022/11/25 09:06:36;;;;;;;8.63;6.22;;;8.40;97.20;;;;;;1685660;29;20212;-74
2022/11/25 09:07:28;;;;;;;7.45;6.30;;;8.50;97.20;;;;;;1685936;29;20227;-74
2022/11/25 09:08:20;;;;;;;8.43;5.45;;;8.60;97.20;;;;;;1685899;29;20239;-74
2022/11/25 09:09:12;;;;;;;8.63;5.90;;;8.70;97.20;;;;;;1685483;29;20208;-72
2022/11/25 09:10:03;;;;;;;6.70;5.78;;;8.80;97.20;;;;;;1685435;29;20219;-73
2022/11/25 09:10:55;;;;;;;6.70;4.85;;;8.90;97.20;;;;;;1685045;29;20271;-73
2022/11/25 09:11:46;;;;;;;8.18;4.68;;;9.00;97.20;;;;;;1685354;29;20204;-73
2022/11/25 09:12:37;;;;;;;7.30;4.70;;;9.10;97.20;;;;;;1685357;29;20205;-72
2022/11/25 09:13:28;;;;;;;5.00;4.15;;;9.30;97.20;;;;;;1686028;29;20211;-72
2022/11/25 09:14:20;;;;;;;4.60;3.53;;;9.40;97.20;;;;;;1685912;29;20283;-73
2022/11/25 09:15:11;;;;;;;5.43;3.92;;;9.50;97.20;;;;;;1685917;29;20205;-73
2022/11/25 09:16:03;;;;;;;3.80;3.40;;;9.50;97.20;;;;;;1685147;29;20189;-73
2022/11/25 09:16:55;;;;;;;4.30;3.58;;;9.60;97.20;;;;;;1685710;29;20457;-73
2022/11/25 09:17:47;;;;;;;5.70;3.80;;;9.60;97.20;;;;;;1685509;29;20667;-72
2022/11/25 09:18:39;;;;;;;5.28;3.75;;;9.60;97.20;;;;;;1685457;29;20220;-72
2022/11/25 09:19:30;;;;;;;4.45;3.30;;;9.60;97.20;;;;;;1685850;29;20204;-72
2022/11/25 09:20:21;;;;;;;3.97;3.50;;;9.60;97.20;;;;;;1685603;29;20214;-73
2022/11/25 09:21:15;;;;;;;8.23;3.30;;;9.60;97.20;;;;;;1685488;29;20200;-72
2022/11/25 09:22:07;;;;;;;7.32;3.92;;;9.60;97.20;;;;;;1685802;29;20204;-72
2022/11/25 09:23:01;;;;;;;5.80;4.20;;;9.60;97.20;;;;;;1685545;29;20223;-73
2022/11/25 09:23:54;;;;;;;6.72;3.38;;;9.50;97.20;;;;;;1685629;29;20213;-72
2022/11/25 09:24:45;;;;;;;4.20;3.60;;;9.50;97.20;;;;;;1686192;29;20208;-74
2022/11/25 09:25:36;;;;;;;8.57;3.50;;;9.50;97.20;;;;;;1686417;29;20233;-72
2022/11/25 09:26:29;;;;;;;6.40;3.75;;;9.50;97.20;;;;;;1685721;29;20215;-73
2022/11/25 09:27:21;;;;;;;4.43;3.17;;;9.50;97.20;;;;;;1685534;29;20543;-72
2022/11/25 09:28:12;;;;;;;5.40;3.55;;;9.50;97.20;;;;;;1686010;29;20200;-75
2022/11/25 09:29:04;;;;;;;5.00;3.50;;;9.50;97.20;;;;;;1685395;29;20204;-75
2022/11/25 09:29:54;;;;;;;4.80;3.55;;;9.50;97.20;;;;;;1685507;29;20216;-76
2022/11/25 09:30:46;;;;;;;7.70;4.07;;;9.50;97.20;;;;;;1685371;29;20736;-73
2022/11/25 09:31:39;;;;;;;8.63;4.15;;;9.50;97.20;;;;;;1685621;29;20560;-73
2022/11/25 09:32:29;;;;;;;6.32;4.03;;;9.40;97.20;;;;;;1686415;29;20267;-72
2022/11/25 09:33:21;;;;;;;6.03;4.17;;;9.40;97.20;;;;;;1686863;29;20252;-72
2022/11/25 09:34:12;;;;;;;4.95;3.50;;;9.40;97.20;;;;;;1686123;29;20523;-73
2022/11/25 09:35:04;;;;;;;4.87;4.10;;;9.40;97.20;;;;;;1686549;29;20204;-74
2022/11/25 09:36:00;;;;;;;4.60;3.63;;;9.40;97.20;;;;;;1685782;29;20197;-73
2022/11/25 09:36:50;;;;;;;4.30;3.13;;;9.40;97.20;;;;;;1685544;29;20204;-73
2022/11/25 09:37:42;;;;;;;8.50;4.77;;;9.40;97.20;;;;;;1686063;29;20199;-72
2022/11/25 09:38:35;;;;;;;7.63;3.60;;;9.40;97.20;;;;;;1685003;29;20201;-73
2022/11/25 09:39:29;;;;;;;6.65;3.60;;;9.40;97.20;;;;;;1685480;29;20201;-72
2022/11/25 09:40:42;;;;;;;5.85;3.80;;;9.40;97.20;;;;;;1685607;29;20201;-73
2022/11/25 09:47:22;;;;;;;5.53;3.80;;;9.30;97.20;;;;;;1685534;29;20653;-72
2022/11/25 09:48:28;;;;;;;4.63;3.50;;;9.30;97.20;;;;;;1686051;29;20213;-73
2022/11/25 09:49:35;;;;;;;4.72;3.58;;;9.20;97.20;;;;;;1685546;29;20204;-73
2022/11/25 09:50:41;;;;;;;6.40;4.40;;;9.20;97.20;;;;;;1686349;29;20197;-73
2022/11/25 09:51:42;;;;;;;5.50;3.72;;;9.20;97.20;;;;;;1685618;29;20277;-73
2022/11/25 09:52:39;;;;;;;6.45;4.20;;;9.20;97.20;;;;;;1685552;29;20209;-73
2022/11/25 09:53:42;;;;;;;6.10;3.70;;;9.20;97.20;;;;;;1685683;29;20200;-72
2022/11/25 09:54:36;;;;;;;5.25;3.80;;;9.20;97.20;;;;;;1685697;29;20228;-72
2022/11/25 09:55:34;;;;;;;4.25;3.80;;;9.20;97.20;;;;;;1685743;29;20517;-72
2022/11/25 09:56:30;;;;;;;6.78;3.88;;;9.20;97.20;;;;;;1685650;29;20208;-71
2022/11/25 09:57:29;;;;;;;6.30;4.55;;;9.30;97.20;;;;;;1686005;29;20686;-72
2022/11/25 09:58:28;;;;;;;5.68;4.20;;;9.30;97.20;;;;;;1685403;29;20205;-72
2022/11/25 09:59:25;;;;;;;7.00;4.80;;;9.30;97.20;;;;;;1686060;29;20292;-71
2022/11/25 10:00:17;;;;;;;6.93;5.00;;;9.30;97.20;;;;;;1685540;29;20225;-75
2022/11/25 10:01:17;;;;;;;6.93;4.80;;;9.30;97.20;;;;;;1685915;29;20298;-75
2022/11/25 10:02:17;;;;;;;7.43;5.30;;;9.30;97.20;;;;;;1685861;29;20213;-75
2022/11/25 10:03:16;;;;;;;7.07;5.32;;;9.30;97.20;;;;;;1685536;29;20213;-74
2022/11/25 10:04:16;;;;;;;15.43;4.50;;;9.40;97.20;;;;;;1686329;29;20189;-75
2022/11/25 10:05:15;;;;;;;6.47;4.60;;;9.40;97.20;;;;;;1685828;29;20318;-72
2022/11/25 10:06:12;;;;;;;6.05;4.45;;;9.40;97.20;;;;;;1687038;29;20213;-77
2022/11/25 10:07:09;;;;;;;6.05;4.18;;;9.40;97.20;;;;;;1689540;29;20185;-78
2022/11/25 10:08:07;;;;;;;5.65;4.00;;;9.40;97.20;;;;;;1686483;29;20219;-72
2022/11/25 10:09:04;;;;;;;5.03;4.20;;;9.40;97.20;;;;;;1685494;29;20607;-72
2022/11/25 10:09:57;;;;;;;8.07;4.85;;;9.40;97.20;;;;;;1685583;29;21774;-72
2022/11/25 10:10:53;;;;;;;5.50;4.63;;;9.40;97.20;;;;;;1685579;29;20284;-72
2022/11/25 10:11:49;;;;;;;7.13;4.22;;;9.40;97.20;;;;;;1686420;29;20193;-72
2022/11/25 10:12:45;;;;;;;6.20;4.28;;;9.40;97.20;;;;;;1685436;29;20232;-72
2022/11/25 10:13:43;;;;;;;6.80;4.55;;;9.40;97.20;;;;;;1685635;29;20205;-72
2022/11/25 10:14:42;;;;;;;5.28;4.18;;;9.40;97.20;;;;;;1685698;29;20582;-72
2022/11/25 10:15:39;;;;;;;5.78;4.45;;;9.50;97.20;;;;;;1685887;29;20275;-72
2022/11/25 10:16:38;;;;;;;5.40;4.40;;;9.50;97.20;;;;;;1685675;29;20200;-72
2022/11/25 10:17:38;;;;;;;6.22;3.70;;;9.60;97.20;;;;;;1685949;29;20204;-72
2022/11/25 10:18:32;;;;;;;8.23;4.28;;;9.70;97.20;;;;;;1685167;29;20208;-72
2022/11/25 10:19:35;;;;;;;4.95;4.10;;;9.80;97.20;;;;;;1686215;29;20573;-72
2022/11/25 10:20:29;;;;;;;5.45;3.58;;;9.90;97.20;;;;;;1685677;29;20723;-73
2022/11/25 10:21:21;;;;;;;6.38;3.97;;;10.00;97.20;;;;;;1685826;29;20200;-72
2022/11/25 10:22:21;;;;;;;7.25;3.95;;;10.10;97.20;;;;;;1685728;29;20212;-72
2022/11/25 10:23:19;;;;;;;6.60;4.20;;;10.30;97.20;;;;;;1685540;29;20275;-72
2022/11/25 10:24:16;;;;;;;5.53;3.70;;;10.40;97.20;;;;;;1685678;29;20216;-72
2022/11/25 10:25:15;;;;;;;4.18;3.75;;;10.60;97.20;;;;;;1685415;29;20239;-72
2022/11/25 10:26:12;;;;;;;4.30;3.30;;;10.80;97.20;;;;;;1685545;29;20316;-75
2022/11/25 10:27:11;;;;;;;5.13;4.00;;;11.00;97.20;;;;;;1685682;29;20213;-73
2022/11/25 10:28:09;;;;;;;6.03;3.78;;;11.20;97.20;;;;;;1678753;29;20194;-73
2022/11/25 10:29:19;;;;;;;5.53;3.22;;;11.40;97.20;;;;;;1678166;29;20210;-73
2022/11/25 10:30:17;;;;;;;5.22;4.10;;;11.60;97.20;;;;;;1685487;29;20217;-73
2022/11/25 10:31:15;;;;;;;5.82;3.90;;;11.80;97.20;;;;;;1685802;29;20212;-73
2022/11/25 10:32:20;;;;;;;5.38;3.50;;;11.90;97.20;;;;;;1685606;29;20197;-73
2022/11/25 10:33:18;;;;;;;4.93;3.60;;;12.00;97.20;;;;;;1685472;29;20212;-73
2022/11/25 10:34:15;;;;;;;5.25;3.70;;;12.00;97.20;;;;;;1685513;29;20213;-73
2022/11/25 10:35:16;;;;;;;7.82;3.80;;;12.00;97.20;;;;;;1685655;29;20209;-73
2022/11/25 10:36:14;;;;;;;6.32;3.65;;;12.00;97.20;;;;;;1685705;29;20201;-73
2022/11/25 10:37:12;;;;;;;5.55;3.70;;;12.00;97.20;;;;;;1685147;29;20193;-73
2022/11/25 10:38:07;;;;;;;7.03;3.88;;;12.00;97.20;;;;;;1685419;29;20643;-73
2022/11/25 10:39:00;;;;;;;5.32;3.70;;;12.00;97.20;;;;;;1684787;29;20200;-74
2022/11/25 10:39:53;;;;;;;5.45;3.10;;;12.00;97.20;;;;;;1685720;29;20287;-73
2022/11/25 10:40:47;;;;;;;5.05;3.67;;;11.90;97.20;;;;;;1684985;29;20229;-73
2022/11/25 10:41:50;;;;;;;4.47;3.50;;;11.90;97.20;;;;;;1685223;29;20261;-73
2022/11/25 10:42:41;;;;;;;8.75;3.47;;;11.90;97.20;;;;;;1685983;29;20205;-72
2022/11/25 10:43:33;;;;;;;5.20;3.33;;;11.90;97.20;;;;;;1685552;29;20260;-70
2022/11/25 10:44:26;;;;;;;5.38;3.70;;;11.90;97.20;;;;;;1685793;29;20208;-70
2022/11/25 10:45:22;;;;;;;6.60;3.40;;;11.80;97.20;;;;;;1685346;29;20754;-69